createdAt,value
2023-05-03T00:01:09.353Z,17.12
2023-05-03T00:03:37.818Z,17.06
2023-05-03T00:06:14.302Z,17.04
2023-05-03T00:08:41.821Z,17.04
2023-05-03T00:11:08.760Z,17.01
2023-05-03T00:13:36.163Z,16.97
2023-05-03T00:16:02.878Z,16.95
2023-05-03T00:18:30.632Z,16.98
2023-05-03T00:20:58.928Z,16.97
2023-05-03T00:23:26.754Z,17.00
2023-05-03T00:25:57.104Z,16.98
2023-05-03T00:28:24.572Z,16.96
2023-05-03T00:30:52.045Z,16.94
2023-05-03T00:33:19.076Z,16.93
2023-05-03T00:35:45.933Z,16.92
2023-05-03T00:38:14.435Z,16.91
2023-05-03T00:40:41.305Z,16.91
2023-05-03T00:43:10.673Z,16.91
2023-05-03T00:45:37.379Z,16.91
2023-05-03T00:48:04.448Z,16.94
2023-05-03T00:50:31.218Z,16.88
2023-05-03T00:52:58.270Z,16.86
2023-05-03T00:55:26.320Z,16.84
2023-05-03T00:57:53.293Z,16.98
2023-05-03T01:00:20.421Z,16.87
2023-05-03T01:02:47.538Z,16.85
2023-05-03T01:05:15.827Z,16.84
2023-05-03T01:08:01.332Z,16.85
2023-05-03T01:10:33.736Z,16.79
2023-05-03T01:13:28.566Z,16.78
2023-05-03T01:16:26.403Z,16.78
2023-05-03T01:18:54.940Z,16.79
2023-05-03T01:21:22.837Z,16.76
2023-05-03T01:24:09.378Z,16.75
2023-05-03T01:26:36.261Z,16.80
2023-05-03T01:29:04.002Z,16.75
2023-05-03T01:31:37.742Z,16.74
2023-05-03T01:34:16.949Z,16.78
2023-05-03T01:36:44.369Z,16.74
2023-05-03T01:39:16.925Z,16.75
2023-05-03T01:41:43.675Z,16.77
2023-05-03T01:44:10.835Z,16.70
2023-05-03T01:46:44.695Z,16.66
2023-05-03T01:49:11.946Z,16.70
2023-05-03T01:51:38.746Z,16.67
2023-05-03T01:54:06.282Z,16.67
2023-05-03T01:56:34.547Z,16.64
2023-05-03T01:59:01.727Z,16.72
2023-05-03T02:01:28.567Z,16.62
2023-05-03T02:03:55.781Z,16.62
2023-05-03T02:06:22.547Z,16.62
2023-05-03T02:08:49.596Z,16.61
2023-05-03T02:11:16.270Z,16.63
2023-05-03T02:13:43.288Z,16.57
2023-05-03T02:16:10.125Z,16.55
2023-05-03T02:18:37.481Z,16.61
2023-05-03T02:21:04.894Z,16.58
2023-05-03T02:23:31.914Z,16.55
2023-05-03T02:25:58.684Z,16.57
2023-05-03T02:28:25.700Z,16.55
2023-05-03T02:30:52.441Z,16.54
2023-05-03T02:33:19.618Z,16.53
2023-05-03T02:35:46.367Z,16.52
2023-05-03T02:38:13.488Z,16.56
2023-05-03T02:40:40.220Z,16.45
2023-05-03T02:43:07.440Z,16.51
2023-05-03T02:45:36.505Z,16.46
2023-05-03T02:48:03.913Z,16.57
2023-05-03T02:50:30.691Z,16.45
2023-05-03T02:52:57.726Z,16.44
2023-05-03T02:55:25.152Z,16.51
2023-05-03T02:57:52.181Z,16.45
2023-05-03T03:00:19.163Z,16.43
2023-05-03T03:02:46.568Z,16.42
2023-05-03T03:05:13.437Z,16.45
2023-05-03T03:07:40.510Z,16.39
2023-05-03T03:10:07.862Z,16.40
2023-05-03T03:12:38.064Z,16.46
2023-05-03T03:15:05.408Z,16.49
2023-05-03T03:17:32.586Z,16.46
2023-05-03T03:19:59.553Z,16.48
2023-05-03T03:22:26.740Z,16.41
2023-05-03T03:24:53.546Z,16.41
2023-05-03T03:27:21.625Z,16.40
2023-05-03T03:29:48.367Z,16.40
2023-05-03T03:32:15.550Z,16.45
2023-05-03T03:34:42.294Z,16.39
2023-05-03T03:37:09.367Z,16.37
2023-05-03T03:39:36.197Z,16.38
2023-05-03T03:42:03.301Z,16.37
2023-05-03T03:44:30.027Z,16.35
2023-05-03T03:46:57.048Z,16.38
2023-05-03T03:49:23.814Z,16.32
2023-05-03T03:51:50.870Z,16.34
2023-05-03T03:54:17.544Z,16.35
2023-05-03T03:56:44.576Z,16.38
2023-05-03T03:59:11.267Z,16.34
2023-05-03T04:01:38.423Z,16.42
2023-05-03T04:04:05.329Z,16.42
2023-05-03T04:06:33.190Z,16.41
2023-05-03T04:08:59.888Z,16.35
2023-05-03T04:11:26.904Z,16.31
2023-05-03T04:13:53.647Z,16.40
2023-05-03T04:16:20.731Z,16.32
2023-05-03T04:18:47.490Z,16.32
2023-05-03T04:21:14.563Z,16.28
2023-05-03T04:23:41.316Z,16.29
2023-05-03T04:26:14.453Z,16.33
2023-05-03T04:28:46.851Z,16.29
2023-05-03T04:31:14.732Z,16.35
2023-05-03T04:33:41.494Z,16.41
2023-05-03T04:36:09.206Z,16.33
2023-05-03T04:38:36.125Z,16.26
2023-05-03T04:41:03.223Z,16.30
2023-05-03T04:43:29.899Z,16.23
2023-05-03T04:45:57.129Z,16.25
2023-05-03T04:48:24.221Z,16.29
2023-05-03T04:50:52.372Z,16.30
2023-05-03T04:53:19.162Z,16.27
2023-05-03T04:55:47.529Z,16.24
2023-05-03T04:58:14.201Z,16.18
2023-05-03T05:00:42.001Z,16.23
2023-05-03T05:03:08.958Z,16.21
2023-05-03T05:05:36.040Z,16.22
2023-05-03T05:08:02.829Z,16.21
2023-05-03T05:10:29.840Z,16.13
2023-05-03T05:12:56.553Z,16.01
2023-05-03T05:15:23.691Z,16.11
2023-05-03T05:17:50.568Z,16.09
2023-05-03T05:20:18.919Z,16.03
2023-05-03T05:22:45.993Z,16.05
2023-05-03T05:25:13.162Z,16.01
2023-05-03T05:27:39.919Z,15.97
2023-05-03T05:30:07.683Z,15.95
2023-05-03T05:32:34.536Z,16.01
2023-05-03T05:35:01.632Z,15.92
2023-05-03T05:37:28.624Z,15.92
2023-05-03T05:39:55.795Z,15.92
2023-05-03T05:42:22.519Z,15.89
2023-05-03T05:44:49.592Z,15.90
2023-05-03T05:47:16.408Z,15.91
2023-05-03T05:49:43.758Z,15.92
2023-05-03T05:52:10.549Z,15.90
2023-05-03T05:54:37.706Z,15.91
2023-05-03T05:57:04.400Z,15.89
2023-05-03T05:59:31.572Z,15.89
2023-05-03T06:02:00.250Z,15.92
2023-05-03T06:04:27.418Z,15.93
2023-05-03T06:06:54.441Z,15.82
2023-05-03T06:09:24.602Z,15.79
2023-05-03T06:11:52.117Z,15.84
2023-05-03T06:14:20.736Z,15.85
2023-05-03T06:16:47.676Z,15.91
2023-05-03T06:19:14.801Z,15.86
2023-05-03T06:21:41.500Z,15.88
2023-05-03T06:24:08.841Z,15.75
2023-05-03T06:26:35.850Z,15.88
2023-05-03T06:29:03.291Z,15.89
2023-05-03T06:31:30.235Z,15.78
2023-05-03T06:33:57.358Z,15.92
2023-05-03T06:36:24.108Z,15.83
2023-05-03T06:38:51.091Z,15.84
2023-05-03T06:41:17.848Z,15.82
2023-05-03T06:43:44.920Z,15.79
2023-05-03T06:46:13.139Z,15.79
2023-05-03T06:48:40.230Z,15.76
2023-05-03T06:51:07.204Z,15.94
2023-05-03T06:53:34.222Z,15.85
2023-05-03T06:56:00.953Z,16.00
2023-05-03T06:58:27.956Z,15.93
2023-05-03T07:00:54.715Z,15.87
2023-05-03T07:03:21.865Z,15.90
2023-05-03T07:05:48.965Z,15.95
2023-05-03T07:08:16.100Z,15.97
2023-05-03T07:10:42.866Z,15.93
2023-05-03T07:13:09.902Z,16.14
2023-05-03T07:15:36.635Z,16.13
2023-05-03T07:18:03.876Z,15.95
2023-05-03T07:20:30.753Z,16.10
2023-05-03T07:22:58.340Z,15.99
2023-05-03T07:25:25.261Z,16.23
2023-05-03T07:27:52.509Z,16.32
2023-05-03T07:30:19.241Z,16.36
2023-05-03T07:32:46.299Z,16.35
2023-05-03T07:35:13.026Z,16.27
2023-05-03T07:37:40.151Z,16.14
2023-05-03T07:40:07.517Z,16.20
2023-05-03T07:42:34.547Z,16.29
2023-05-03T07:45:01.559Z,16.19
2023-05-03T07:47:28.619Z,16.24
2023-05-03T07:49:55.459Z,16.23
2023-05-03T07:52:22.749Z,16.27
2023-05-03T07:54:49.533Z,16.30
2023-05-03T07:57:16.601Z,16.29
2023-05-03T07:59:43.481Z,16.25
2023-05-03T08:02:10.721Z,16.26
2023-05-03T08:04:37.714Z,16.27
2023-05-03T08:07:04.941Z,16.26
2023-05-03T08:09:31.686Z,16.28
2023-05-03T08:11:58.726Z,16.32
2023-05-03T08:14:25.816Z,16.36
2023-05-03T08:16:52.827Z,16.38
2023-05-03T08:19:19.663Z,16.39
2023-05-03T08:21:50.022Z,16.32
2023-05-03T08:24:16.804Z,16.42
2023-05-03T08:26:45.426Z,16.41
2023-05-03T08:29:12.232Z,16.43
2023-05-03T08:31:39.818Z,16.45
2023-05-03T08:34:07.993Z,16.55
2023-05-03T08:36:35.843Z,16.52
2023-05-03T08:39:03.900Z,16.53
2023-05-03T08:41:31.223Z,16.55
2023-05-03T08:43:58.694Z,16.66
2023-05-03T08:46:28.514Z,16.69
2023-05-03T08:48:55.578Z,16.74
2023-05-03T08:51:23.303Z,16.75
2023-05-03T08:53:50.398Z,16.81
2023-05-03T08:56:25.852Z,16.87
2023-05-03T08:58:53.357Z,16.96
2023-05-03T09:01:20.836Z,16.94
2023-05-03T09:03:51.910Z,16.94
2023-05-03T09:06:25.957Z,16.96
2023-05-03T09:08:53.255Z,17.05
2023-05-03T09:11:24.188Z,17.10
2023-05-03T09:13:52.428Z,17.08
2023-05-03T09:16:29.642Z,17.08
2023-05-03T09:18:57.780Z,17.20
2023-05-03T09:21:24.819Z,17.23
2023-05-03T09:23:51.773Z,17.27
2023-05-03T09:26:40.926Z,17.38
2023-05-03T09:29:08.309Z,17.47
2023-05-03T09:31:36.444Z,17.51
2023-05-03T09:34:05.048Z,17.57
2023-05-03T09:36:46.745Z,17.56
2023-05-03T09:39:17.337Z,17.53
2023-05-03T09:41:44.348Z,17.49
2023-05-03T09:44:11.280Z,17.49
2023-05-03T09:46:38.358Z,17.58
2023-05-03T09:49:05.323Z,17.59
2023-05-03T09:51:32.543Z,17.65
2023-05-03T09:53:59.374Z,17.68
2023-05-03T09:56:26.886Z,17.67
2023-05-03T09:58:56.798Z,17.65
2023-05-03T10:01:24.360Z,17.69
2023-05-03T10:03:51.697Z,17.72
2023-05-03T10:06:32.018Z,17.73
2023-05-03T10:09:12.301Z,17.76
2023-05-03T10:11:39.470Z,17.76
2023-05-03T10:14:07.367Z,17.77
2023-05-03T10:16:37.387Z,17.76
2023-05-03T10:19:23.268Z,17.81
2023-05-03T10:22:07.050Z,17.83
2023-05-03T10:24:38.053Z,17.81
2023-05-03T10:27:08.624Z,17.86
2023-05-03T10:29:36.032Z,17.90
2023-05-03T10:32:06.378Z,17.89
2023-05-03T10:34:34.328Z,17.90
2023-05-03T10:37:19.282Z,17.93
2023-05-03T10:39:46.716Z,17.94
2023-05-03T10:42:13.811Z,17.96
2023-05-03T10:44:50.170Z,17.97
2023-05-03T10:47:18.560Z,17.99
2023-05-03T10:49:45.613Z,18.09
2023-05-03T10:52:43.472Z,18.08
2023-05-03T10:55:13.884Z,18.17
2023-05-03T10:57:42.797Z,18.20
2023-05-03T11:00:22.691Z,18.26
2023-05-03T11:03:02.005Z,18.28
2023-05-03T11:05:29.318Z,18.32
2023-05-03T11:08:19.146Z,18.39
2023-05-03T11:10:46.756Z,18.46
2023-05-03T11:13:13.928Z,18.49
2023-05-03T11:15:40.756Z,18.50
2023-05-03T11:18:08.413Z,18.58
2023-05-03T11:20:36.045Z,18.60
2023-05-03T11:23:03.952Z,18.69
2023-05-03T11:25:30.999Z,18.78
2023-05-03T11:27:58.175Z,18.89
2023-05-03T11:30:24.968Z,18.96
2023-05-03T11:32:52.337Z,19.04
2023-05-03T11:35:19.857Z,19.05
2023-05-03T11:37:47.463Z,18.98
2023-05-03T11:40:16.839Z,19.03
2023-05-03T11:42:54.818Z,19.09
2023-05-03T11:45:25.873Z,19.11
2023-05-03T11:47:53.092Z,19.20
2023-05-03T11:50:26.783Z,19.30
2023-05-03T11:52:53.850Z,19.31
2023-05-03T11:55:21.618Z,19.25
2023-05-03T11:57:48.648Z,19.30
2023-05-03T12:00:17.596Z,19.33
2023-05-03T12:02:47.991Z,19.37
2023-05-03T12:05:14.986Z,19.32
2023-05-03T12:07:43.041Z,19.34
2023-05-03T12:10:21.564Z,19.45
2023-05-03T12:12:57.585Z,19.51
2023-05-03T12:15:30.282Z,19.56
2023-05-03T12:18:00.082Z,19.53
2023-05-03T12:23:04.165Z,19.57
2023-05-03T12:25:33.953Z,19.58
2023-05-03T12:28:17.894Z,19.56
2023-05-03T12:30:46.475Z,19.64
2023-05-03T12:33:15.971Z,19.68
2023-05-03T12:35:46.685Z,19.76
2023-05-03T12:38:16.537Z,19.86
2023-05-03T12:40:45.540Z,19.91
2023-05-03T12:43:12.893Z,19.88
2023-05-03T12:45:40.874Z,19.86
2023-05-03T12:48:09.136Z,19.84
2023-05-03T12:50:38.883Z,19.82
2023-05-03T12:53:09.493Z,19.87
2023-05-03T12:55:43.252Z,19.86
2023-05-03T13:01:02.942Z,19.91
2023-05-03T13:03:33.116Z,19.94
2023-05-03T13:06:01.110Z,20.00
2023-05-03T13:08:34.860Z,20.05
2023-05-03T13:11:02.458Z,20.15
2023-05-03T13:13:29.752Z,20.19
2023-05-03T13:15:56.577Z,20.22
2023-05-03T13:18:23.768Z,20.27
2023-05-03T13:20:51.775Z,20.30
2023-05-03T13:23:18.864Z,20.38
2023-05-03T13:25:46.404Z,20.39
2023-05-03T13:28:13.498Z,20.46
2023-05-03T13:30:40.215Z,20.48
2023-05-03T13:33:08.292Z,20.50
2023-05-03T13:35:35.056Z,20.53
2023-05-03T13:38:02.382Z,20.55
2023-05-03T13:40:29.315Z,20.61
2023-05-03T13:42:56.361Z,20.68
2023-05-03T13:45:23.144Z,20.70
2023-05-03T13:50:19.877Z,20.60
2023-05-03T13:52:46.926Z,20.60
2023-05-03T13:55:13.713Z,20.65
2023-05-03T13:57:41.057Z,20.72
2023-05-03T14:00:08.679Z,20.69
2023-05-03T14:02:35.880Z,20.69
2023-05-03T14:05:03.429Z,20.71
2023-05-03T14:07:30.595Z,20.71
2023-05-03T14:09:57.706Z,20.74
2023-05-03T14:12:26.537Z,20.80
2023-05-03T14:14:54.073Z,20.80
2023-05-03T14:17:21.711Z,20.82
2023-05-03T14:19:48.632Z,20.82
2023-05-03T14:22:16.004Z,20.82
2023-05-03T14:24:44.338Z,20.82
2023-05-03T14:27:12.930Z,20.80
2023-05-03T14:29:39.878Z,20.80
2023-05-03T14:32:06.953Z,20.79
2023-05-03T14:34:33.761Z,20.75
2023-05-03T14:37:00.870Z,20.79
2023-05-03T14:39:27.935Z,20.82
2023-05-03T14:41:56.474Z,20.83
2023-05-03T14:44:23.434Z,20.87
2023-05-03T14:46:51.122Z,20.88
2023-05-03T14:49:18.230Z,20.87
2023-05-03T14:51:45.909Z,20.89
2023-05-03T14:54:13.111Z,20.90
2023-05-03T14:56:40.161Z,20.90
2023-05-03T14:59:07.162Z,20.89
2023-05-03T15:01:34.295Z,20.89
2023-05-03T15:04:01.206Z,20.91
2023-05-03T15:06:30.880Z,20.89
2023-05-03T15:08:59.631Z,20.91
2023-05-03T15:11:27.927Z,20.92
2023-05-03T15:13:54.876Z,20.89
2023-05-03T15:16:22.053Z,20.88
2023-05-03T15:18:48.963Z,20.88
2023-05-03T15:21:18.876Z,20.90
2023-05-03T15:23:47.208Z,20.90
2023-05-03T15:26:14.294Z,20.90
2023-05-03T15:28:41.141Z,20.88
2023-05-03T15:31:08.276Z,20.88
2023-05-03T15:33:44.674Z,20.87
2023-05-03T15:36:12.560Z,20.87
2023-05-03T15:38:41.161Z,20.86
2023-05-03T15:41:08.408Z,20.85
2023-05-03T15:43:35.252Z,20.84
2023-05-03T15:46:02.436Z,20.84
2023-05-03T15:48:29.234Z,20.85
2023-05-03T15:50:56.251Z,20.87
2023-05-03T15:53:22.971Z,20.82
2023-05-03T15:55:50.046Z,20.80
2023-05-03T15:58:18.926Z,20.84
2023-05-03T16:00:46.893Z,20.85
2023-05-03T16:03:13.705Z,20.84
2023-05-03T16:05:40.846Z,20.85
2023-05-03T16:08:08.275Z,20.81
2023-05-03T16:10:35.406Z,20.79
2023-05-03T16:13:02.446Z,20.81
2023-05-03T16:15:29.829Z,20.80
2023-05-03T16:17:56.966Z,20.79
2023-05-03T16:20:24.074Z,20.79
2023-05-03T16:22:52.649Z,20.72
2023-05-03T16:25:19.949Z,20.72
2023-05-03T16:27:46.757Z,20.73
2023-05-03T16:30:14.459Z,20.69
2023-05-03T16:32:42.822Z,20.67
2023-05-03T16:35:10.105Z,20.65
2023-05-03T16:37:37.782Z,20.65
2023-05-03T16:40:10.610Z,20.64
2023-05-03T16:42:41.548Z,20.62
2023-05-03T16:45:10.625Z,20.56
2023-05-03T16:47:37.978Z,20.57
2023-05-03T16:50:08.653Z,20.55
2023-05-03T16:52:42.640Z,20.54
2023-05-03T16:55:10.927Z,20.53
2023-05-03T16:57:38.188Z,20.50
2023-05-03T17:00:09.311Z,20.48
2023-05-03T17:02:37.479Z,20.47
2023-05-03T17:05:08.276Z,20.41
2023-05-03T17:07:35.709Z,20.47
2023-05-03T17:10:03.593Z,20.48
2023-05-03T17:12:31.178Z,20.46
2023-05-03T17:14:58.437Z,20.41
2023-05-03T17:17:25.265Z,20.39
2023-05-03T17:19:52.685Z,20.35
2023-05-03T17:22:20.229Z,20.34
2023-05-03T17:24:47.372Z,20.33
2023-05-03T17:27:15.417Z,20.26
2023-05-03T17:29:42.965Z,20.21
2023-05-03T17:32:09.780Z,20.19
2023-05-03T17:34:36.920Z,20.19
2023-05-03T17:37:03.774Z,20.12
2023-05-03T17:39:30.930Z,20.13
2023-05-03T17:41:57.970Z,20.06
2023-05-03T17:44:26.292Z,20.05
2023-05-03T17:46:53.453Z,20.01
2023-05-03T17:49:20.612Z,19.98
2023-05-03T17:51:47.498Z,19.98
2023-05-03T17:54:14.679Z,19.95
2023-05-03T17:56:43.597Z,19.92
2023-05-03T17:59:12.133Z,19.90
2023-05-03T18:01:39.099Z,19.88
2023-05-03T18:04:06.252Z,19.86
2023-05-03T18:06:33.155Z,19.79
2023-05-03T18:09:01.357Z,19.79
2023-05-03T18:11:28.172Z,19.74
2023-05-03T18:13:55.302Z,19.74
2023-05-03T18:16:23.634Z,19.72
2023-05-03T18:18:50.837Z,19.71
2023-05-03T18:21:18.649Z,19.71
2023-05-03T18:23:46.133Z,19.67
2023-05-03T18:26:13.051Z,19.64
2023-05-03T18:28:40.256Z,19.62
2023-05-03T18:31:07.078Z,19.58
2023-05-03T18:33:40.052Z,19.55
2023-05-03T18:36:11.829Z,19.55
2023-05-03T18:38:41.933Z,19.49
2023-05-03T18:41:15.900Z,19.51
2023-05-03T18:43:43.745Z,19.42
2023-05-03T18:46:10.891Z,19.41
2023-05-03T18:48:38.753Z,19.32
2023-05-03T18:51:05.739Z,19.34
2023-05-03T18:53:34.359Z,19.28
2023-05-03T18:56:05.348Z,19.25
2023-05-03T18:58:32.622Z,19.25
2023-05-03T19:01:00.586Z,19.22
2023-05-03T19:03:29.653Z,19.11
2023-05-03T19:06:10.015Z,19.12
2023-05-03T19:08:38.690Z,19.09
2023-05-03T19:11:09.716Z,19.07
2023-05-03T19:13:37.083Z,19.06
2023-05-03T19:16:06.202Z,19.04
2023-05-03T19:18:33.418Z,18.98
2023-05-03T19:21:00.298Z,18.93
2023-05-03T19:23:27.573Z,18.85
2023-05-03T19:25:54.490Z,18.78
2023-05-03T19:28:22.271Z,18.85
2023-05-03T19:30:51.882Z,18.77
2023-05-03T19:33:19.619Z,18.81
2023-05-03T19:35:47.732Z,18.79
2023-05-03T19:38:17.482Z,18.70
2023-05-03T19:40:56.815Z,18.68
2023-05-03T19:43:23.921Z,18.65
2023-05-03T19:45:51.454Z,18.62
2023-05-03T19:48:19.682Z,18.62
2023-05-03T19:50:47.784Z,18.55
2023-05-03T19:53:14.983Z,18.52
2023-05-03T19:55:41.894Z,18.49
2023-05-03T19:58:10.368Z,18.47
2023-05-03T20:00:37.169Z,18.41
2023-05-03T20:03:05.423Z,18.37
2023-05-03T20:05:32.320Z,18.35
2023-05-03T20:07:59.445Z,18.32
2023-05-03T20:10:27.314Z,18.30
2023-05-03T20:12:54.527Z,18.23
2023-05-03T20:15:21.407Z,18.20
2023-05-03T20:17:48.583Z,18.12
2023-05-03T20:20:16.472Z,18.11
2023-05-03T20:22:43.629Z,18.05
2023-05-03T20:25:10.507Z,18.03
2023-05-03T20:27:37.687Z,18.02
2023-05-03T20:30:06.082Z,17.91
2023-05-03T20:32:36.382Z,17.94
2023-05-03T20:35:07.158Z,17.78
2023-05-03T20:37:35.804Z,17.79
2023-05-03T20:40:03.493Z,17.77
2023-05-03T20:42:30.805Z,17.68
2023-05-03T20:44:57.629Z,17.66
2023-05-03T20:47:24.878Z,17.65
2023-05-03T20:49:51.685Z,17.59
2023-05-03T20:52:18.835Z,17.57
2023-05-03T20:54:46.567Z,17.54
2023-05-03T20:57:13.872Z,17.49
2023-05-03T20:59:41.764Z,17.41
2023-05-03T21:02:08.902Z,17.39
2023-05-03T21:04:36.513Z,17.39
2023-05-03T21:07:03.762Z,17.30
2023-05-03T21:09:31.013Z,17.24
2023-05-03T21:11:58.152Z,17.16
2023-05-03T21:14:25.575Z,17.19
2023-05-03T21:16:52.769Z,17.17
2023-05-03T21:19:19.625Z,17.11
2023-05-03T21:21:46.711Z,17.06
2023-05-03T21:24:13.483Z,17.01
2023-05-03T21:26:40.544Z,16.93
2023-05-03T21:29:07.354Z,16.84
2023-05-03T21:31:34.536Z,16.80
2023-05-03T21:34:03.219Z,16.77
2023-05-03T21:36:30.477Z,16.70
2023-05-03T21:38:57.994Z,16.71
2023-05-03T21:41:25.039Z,16.66
2023-05-03T21:43:51.776Z,16.60
2023-05-03T21:46:18.957Z,16.55
2023-05-03T21:48:45.770Z,16.53
2023-05-03T21:51:22.055Z,16.51
2023-05-03T21:53:49.215Z,16.46
2023-05-03T21:56:16.564Z,16.40
2023-05-03T21:58:44.498Z,16.42
2023-05-03T22:01:11.864Z,16.33
2023-05-03T22:03:40.070Z,16.36
2023-05-03T22:06:08.464Z,16.32
2023-05-03T22:08:35.246Z,16.35
2023-05-03T22:11:06.977Z,16.31
2023-05-03T22:13:34.516Z,16.25
2023-05-03T22:16:06.378Z,16.22
2023-05-03T22:18:33.529Z,16.11
2023-05-03T22:21:03.855Z,16.09
2023-05-03T22:23:31.055Z,16.09
2023-05-03T22:25:58.516Z,16.05
2023-05-03T22:28:25.289Z,16.00
2023-05-03T22:30:52.384Z,15.97
2023-05-03T22:33:19.100Z,15.94
2023-05-03T22:35:46.475Z,15.86
2023-05-03T22:38:13.226Z,15.84
2023-05-03T22:40:40.228Z,15.81
2023-05-03T22:43:07.164Z,15.79
2023-05-03T22:45:34.534Z,15.74
2023-05-03T22:48:01.325Z,15.68
2023-05-03T22:50:28.357Z,15.63
2023-05-03T22:52:55.109Z,15.62
2023-05-03T22:55:22.126Z,15.61
2023-05-03T22:57:48.834Z,15.57
2023-05-03T23:00:17.650Z,15.45
2023-05-03T23:02:44.504Z,15.47
2023-05-03T23:05:12.152Z,15.39
2023-05-03T23:07:38.929Z,15.45
2023-05-03T23:10:07.432Z,15.36
2023-05-03T23:12:34.521Z,15.33
2023-05-03T23:15:01.601Z,15.32
2023-05-03T23:17:28.447Z,15.32
2023-05-03T23:19:55.515Z,15.27
2023-05-03T23:22:22.259Z,15.15
2023-05-03T23:24:49.258Z,15.17
2023-05-03T23:27:16.012Z,15.11
2023-05-03T23:29:43.426Z,15.05
2023-05-03T23:32:10.451Z,15.08
2023-05-03T23:34:37.818Z,15.03
2023-05-03T23:37:04.538Z,14.99
2023-05-03T23:39:31.632Z,14.94
2023-05-03T23:41:58.882Z,14.94
2023-05-03T23:44:34.694Z,14.88
2023-05-03T23:47:09.105Z,14.91
2023-05-03T23:49:36.210Z,14.82
2023-05-03T23:52:03.210Z,14.78
2023-05-03T23:54:30.248Z,14.75
2023-05-03T23:56:56.952Z,14.65
2023-05-03T23:59:24.036Z,14.65
